Time;durP1;ratioP1;P1;durP2;ratioP2;P2;SDS_P1;SDS_P2;PMS_P1;PMS_P2;Temp;Humidity;BMP_temperature;BMP_pressure;BME280_temperature;BME280_humidity;BME280_pressure;Samples;Min_cycle;Max_cycle;Signal;HPM_P1;HPM_P2
2022/11/26 00:01:00;;;;;;;8.83;4.30;;;;;;;9.36;62.82;95093.50;5024728;28;20192;-84
2022/11/26 00:03:28;;;;;;;5.00;3.97;;;;;;;9.36;62.78;95101.16;5030565;28;20204;-79
2022/11/26 00:05:57;;;;;;;4.93;4.10;;;;;;;9.33;62.88;95098.84;5027962;28;20227;-80
2022/11/26 00:08:31;;;;;;;6.43;4.30;;;;;;;9.30;62.85;95099.88;5027063;28;20196;-80
2022/11/26 00:10:58;;;;;;;6.17;4.07;;;;;;;9.28;62.97;95099.19;5030543;28;20202;-87
2022/11/26 00:13:27;;;;;;;4.23;3.83;;;;;;;9.25;63.05;95091.78;5022875;28;20211;-86
2022/11/26 00:15:54;;;;;;;5.63;4.30;;;;;;;9.24;62.94;95088.44;5018840;28;20198;-86
2022/11/26 00:18:25;;;;;;;5.30;4.07;;;;;;;9.22;62.98;95094.56;5015837;28;20582;-83
2022/11/26 00:20:56;;;;;;;7.03;4.57;;;;;;;9.17;63.06;95089.81;5016107;28;20239;-81
2022/11/26 00:23:26;;;;;;;6.07;4.50;;;;;;;9.17;62.97;95086.47;5029133;28;20188;-82
2022/11/26 00:25:55;;;;;;;5.57;4.60;;;;;;;9.16;62.98;95098.41;5035075;28;20311;-84
2022/11/26 00:28:29;;;;;;;5.70;4.40;;;;;;;9.14;63.10;95087.50;5034569;28;20191;-86
2022/11/26 00:30:58;;;;;;;7.97;4.80;;;;;;;9.12;63.20;95091.94;5034324;28;20192;-84
2022/11/26 00:33:25;;;;;;;4.30;3.90;;;;;;;8.82;63.20;95046.66;5034374;28;20258;-78
2022/11/26 00:35:57;;;;;;;5.80;4.23;;;;;;;9.09;63.08;95089.59;5034155;28;20195;-78
2022/11/26 00:38:25;;;;;;;5.10;4.17;;;;;;;9.08;63.17;95089.75;5034066;28;20275;-83
2022/11/26 00:40:51;;;;;;;5.03;4.43;;;;;;;9.07;63.36;95096.59;5033801;28;20199;-79
2022/11/26 00:43:18;;;;;;;7.07;4.77;;;;;;;9.02;62.98;95102.03;5034416;28;20191;-84
2022/11/26 00:45:46;;;;;;;6.67;4.37;;;;;;;9.04;63.29;95117.22;5033934;28;20299;-82
2022/11/26 00:48:14;;;;;;;6.10;4.63;;;;;;;8.98;63.25;95110.84;5034308;28;20192;-85
2022/11/26 00:50:45;;;;;;;6.07;4.53;;;;;;;9.01;63.32;95109.78;5034513;28;20226;-85
2022/11/26 00:53:16;;;;;;;6.63;4.30;;;;;;;8.98;63.39;95107.47;5033913;28;20615;-87
2022/11/26 00:55:46;;;;;;;6.67;5.00;;;;;;;8.97;63.23;95116.06;5026289;28;20192;-85
2022/11/26 00:58:22;;;;;;;5.43;4.00;;;;;;;8.93;63.60;95114.66;5014138;28;20192;-82
2022/11/26 01:00:49;;;;;;;5.53;4.07;;;;;;;8.92;63.39;95111.31;5014171;28;20196;-80
2022/11/26 01:03:16;;;;;;;6.60;4.60;;;;;;;8.92;63.47;95113.84;5016753;28;20204;-82
2022/11/26 01:05:43;;;;;;;8.63;4.80;;;;;;;8.90;63.18;95118.28;5020070;28;20726;-84
2022/11/26 01:08:18;;;;;;;7.27;4.40;;;;;;;8.90;63.40;95114.94;5014691;28;20196;-83
2022/11/26 01:10:45;;;;;;;6.20;4.60;;;;;;;8.86;63.46;95110.97;5013928;28;20282;-83
2022/11/26 01:13:12;;;;;;;5.20;4.70;;;;;;;8.84;63.26;95118.72;5014322;28;20664;-84
2022/11/26 01:15:40;;;;;;;7.53;5.23;;;;;;;8.83;63.60;95129.06;5014267;28;20562;-79
2022/11/26 01:18:12;;;;;;;6.97;4.93;;;;;;;8.80;63.46;95127.53;5013878;28;20191;-84
2022/11/26 01:20:41;;;;;;;5.47;4.10;;;;;;;8.79;63.71;95134.38;5016046;28;20188;-82
2022/11/26 01:23:11;;;;;;;6.00;4.10;;;;;;;8.74;63.59;95130.56;5025462;28;20193;-84
2022/11/26 01:25:40;;;;;;;6.07;4.80;;;;;;;8.76;63.82;95128.69;5019311;28;20236;-82
2022/11/26 01:28:11;;;;;;;5.00;4.40;;;;;;;8.71;63.66;95115.50;5015880;28;20203;-85
2022/11/26 01:30:39;;;;;;;6.10;4.70;;;;;;;8.72;63.71;95135.78;5016030;28;20686;-79
2022/11/26 01:33:06;;;;;;;8.03;5.20;;;;;;;8.63;63.63;95115.25;5027415;28;20194;-85
2022/11/26 01:35:33;;;;;;;6.23;4.47;;;;;;;8.66;63.87;95132.88;5034580;28;20658;-83
2022/11/26 01:38:00;;;;;;;5.13;4.63;;;;;;;8.66;63.91;95132.88;5033516;28;20187;-84
2022/11/26 01:40:46;;;;;;;9.17;4.60;;;;;;;8.61;63.77;95119.66;5035469;28;20184;-82
2022/11/26 01:43:20;;;;;;;5.77;4.63;;;;;;;8.58;63.92;95128.34;5037994;28;20192;-85
2022/11/26 01:45:49;;;;;;;7.43;4.83;;;;;;;8.55;63.84;95126.03;5038188;28;20214;-84
2022/11/26 01:48:24;;;;;;;6.50;4.80;;;;;;;8.53;63.97;95131.25;5021236;28;20196;-84
2022/11/26 01:51:04;;;;;;;7.20;4.47;;;;;;;8.50;64.04;95121.25;5026868;28;20195;-82
2022/11/26 01:53:39;;;;;;;7.17;5.20;;;;;;;8.54;64.11;95132.03;5035867;28;20192;-83
2022/11/26 01:56:19;;;;;;;5.33;4.20;;;;;;;8.51;64.09;95127.19;5033569;28;20647;-84
2022/11/26 01:58:49;;;;;;;5.33;4.53;;;;;;;8.52;63.97;95126.25;5035187;28;20199;-83
2022/11/26 02:01:16;;;;;;;5.87;4.40;;;;;;;8.50;64.02;95130.66;5039684;28;20212;-84
2022/11/26 02:03:49;;;;;;;6.07;4.60;;;;;;;8.49;64.09;95134.94;5037649;28;20191;-78
2022/11/26 02:06:21;;;;;;;5.50;4.50;;;;;;;8.45;64.18;95131.00;5035658;28;20250;-77
2022/11/26 02:08:48;;;;;;;4.90;4.07;;;;;;;8.48;64.10;95135.06;5031163;28;20203;-82
2022/11/26 02:11:21;;;;;;;6.37;4.27;;;;;;;8.45;64.23;95127.63;5030273;28;20183;-78
2022/11/26 02:13:50;;;;;;;4.83;4.20;;;;;;;8.47;64.22;95134.25;5030210;28;20213;-78
2022/11/26 02:16:34;;;;;;;5.30;4.10;;;;;;;8.49;64.59;95141.78;5029964;28;20191;-79
2022/11/26 02:19:21;;;;;;;5.27;4.27;;;;;;;8.47;64.20;95136.00;5029933;28;20205;-77
2022/11/26 02:21:53;;;;;;;5.50;4.70;;;;;;;8.46;63.95;95135.19;5030901;28;20203;-78
2022/11/26 02:24:47;;;;;;;5.20;3.97;;;;;;;8.46;64.42;95137.72;5029530;28;20228;-76
2022/11/26 02:28:03;;;;;;;5.43;4.03;;;;;;;8.45;64.46;95131.00;5029463;28;20195;-81
2022/11/26 02:30:32;;;;;;;5.30;4.80;;;;;;;8.26;64.55;95105.22;5030934;28;20198;-81
2022/11/26 02:33:05;;;;;;;4.73;4.27;;;;;;;8.42;64.59;95127.84;5032006;28;20679;-81
2022/11/26 02:35:41;;;;;;;5.23;4.33;;;;;;;8.42;64.73;95127.84;5032452;28;20191;-82
2022/11/26 02:38:11;;;;;;;6.03;4.67;;;;;;;8.41;64.77;95124.50;5032034;28;20191;-81
2022/11/26 02:40:38;;;;;;;4.47;3.73;;;;;;;8.38;64.69;95117.09;5031387;28;20192;-81
2022/11/26 02:43:05;;;;;;;5.60;3.87;;;;;;;8.38;64.80;95123.94;5031785;28;20642;-82
2022/11/26 02:45:37;;;;;;;5.70;4.27;;;;;;;8.32;64.69;95119.25;5031549;28;20803;-83
2022/11/26 02:48:08;;;;;;;6.17;4.63;;;;;;;8.40;64.75;95134.81;5031248;28;20202;-83
2022/11/26 02:50:39;;;;;;;4.73;4.07;;;;;;;8.37;64.83;95135.03;5031766;28;20547;-79
2022/11/26 02:53:08;;;;;;;5.60;4.33;;;;;;;8.37;64.90;95135.03;5031113;28;20199;-80
2022/11/26 02:55:41;;;;;;;4.77;4.27;;;;;;;8.36;64.81;95131.66;5031705;28;20211;-80
2022/11/26 02:58:08;;;;;;;5.00;4.30;;;;;;;8.37;64.79;95129.94;5031538;28;20190;-80
2022/11/26 03:00:41;;;;;;;5.70;4.80;;;;;;;8.32;65.05;95127.69;5031000;28;20199;-82
2022/11/26 03:03:21;;;;;;;5.03;4.50;;;;;;;8.34;64.99;95136.06;5031287;28;20631;-83
2022/11/26 03:05:48;;;;;;;4.17;3.77;;;;;;;8.32;64.98;95140.44;5031079;28;20219;-82
2022/11/26 03:08:16;;;;;;;6.33;4.40;;;;;;;8.29;64.96;95149.13;5031386;28;20200;-82
2022/11/26 03:10:43;;;;;;;6.57;4.40;;;;;;;8.31;64.98;95151.56;5030997;28;20206;-81
2022/11/26 03:13:10;;;;;;;5.03;4.53;;;;;;;8.30;65.00;95143.13;5031190;28;20750;-81
2022/11/26 03:15:38;;;;;;;5.63;4.57;;;;;;;8.29;65.21;95146.59;5032153;28;20291;-81
2022/11/26 03:18:05;;;;;;;4.83;3.93;;;;;;;8.28;65.24;95152.59;5039275;28;20215;-78
2022/11/26 03:20:31;;;;;;;8.00;4.13;;;;;;;8.27;65.35;95155.25;5042010;28;20192;-83
2022/11/26 03:22:58;;;;;;;6.83;4.63;;;;;;;8.25;65.33;95157.13;5041396;28;20188;-81
2022/11/26 03:25:25;;;;;;;7.17;4.60;;;;;;;8.23;65.46;95167.41;5037223;28;20231;-83
2022/11/26 03:27:53;;;;;;;6.87;4.67;;;;;;;8.18;65.35;95172.03;5039962;28;20198;-83
2022/11/26 03:30:20;;;;;;;6.90;4.73;;;;;;;8.21;65.38;95184.56;5034602;28;20269;-84
2022/11/26 03:32:48;;;;;;;6.23;4.40;;;;;;;8.19;65.45;95188.94;5031511;28;20202;-83
2022/11/26 03:35:15;;;;;;;5.73;4.43;;;;;;;8.19;65.61;95193.22;5031417;28;20562;-82
2022/11/26 03:37:42;;;;;;;5.53;4.47;;;;;;;8.17;65.64;95189.97;5031075;28;20184;-84
2022/11/26 03:40:09;;;;;;;5.90;4.50;;;;;;;8.15;65.46;95194.34;5031024;28;20643;-84
2022/11/26 03:42:36;;;;;;;6.13;5.23;;;;;;;8.12;65.67;95185.22;5031090;28;20196;-85
2022/11/26 03:45:04;;;;;;;5.50;4.90;;;;;;;8.13;65.55;95189.38;5030740;28;20234;-84
2022/11/26 03:47:31;;;;;;;5.97;4.33;;;;;;;8.10;65.54;95188.78;5031112;28;20619;-82
2022/11/26 03:49:59;;;;;;;6.20;4.70;;;;;;;8.10;65.65;95197.25;5030998;28;20184;-79
2022/11/26 03:52:26;;;;;;;6.57;4.90;;;;;;;8.07;65.51;95202.53;5030425;28;20192;-83
2022/11/26 03:54:52;;;;;;;8.77;5.37;;;;;;;7.84;65.66;95165.19;5031032;28;20207;-84
2022/11/26 03:57:21;;;;;;;8.13;4.70;;;;;;;8.07;65.42;95207.63;5030337;28;20191;-80
2022/11/26 03:59:47;;;;;;;5.90;4.43;;;;;;;7.95;65.77;95193.25;5030699;28;20196;-84
2022/11/26 04:02:14;;;;;;;6.83;5.30;;;;;;;8.01;65.73;95203.81;5030728;28;20634;-84
2022/11/26 04:04:41;;;;;;;6.87;4.30;;;;;;;8.01;65.73;95206.34;5031115;28;20203;-85
2022/11/26 04:07:09;;;;;;;7.03;5.17;;;;;;;7.95;65.71;95200.91;5031972;28;20187;-83
2022/11/26 04:09:36;;;;;;;6.00;4.67;;;;;;;7.98;65.86;95221.03;5032100;28;20246;-83
2022/11/26 04:12:03;;;;;;;7.00;5.50;;;;;;;7.98;65.91;95223.56;5032345;28;20183;-79
2022/11/26 04:14:30;;;;;;;6.17;4.80;;;;;;;7.97;65.90;95230.41;5030316;28;20195;-82
2022/11/26 04:16:58;;;;;;;6.00;4.93;;;;;;;7.95;65.90;95218.72;5031089;28;20191;-82
2022/11/26 04:19:24;;;;;;;7.93;5.53;;;;;;;7.90;65.92;95216.50;5030587;28;20192;-83
2022/11/26 04:21:51;;;;;;;6.17;5.03;;;;;;;7.92;66.13;95229.94;5031209;28;20656;-84
2022/11/26 04:24:19;;;;;;;7.13;5.07;;;;;;;7.92;66.13;95229.94;5030844;28;20227;-83
2022/11/26 04:26:47;;;;;;;6.37;5.47;;;;;;;7.91;66.03;95233.41;5030716;28;20223;-84
2022/11/26 04:29:16;;;;;;;6.57;5.03;;;;;;;7.84;66.24;95227.09;5031045;28;20188;-84
2022/11/26 04:31:43;;;;;;;5.30;4.77;;;;;;;7.89;66.21;95237.78;5031069;28;20183;-84
2022/11/26 04:34:09;;;;;;;5.50;5.00;;;;;;;7.89;66.36;95239.50;5035806;28;20196;-77
2022/11/26 04:36:38;;;;;;;6.93;5.20;;;;;;;7.87;66.35;95249.81;5033284;28;20287;-83
2022/11/26 04:39:04;;;;;;;7.60;4.77;;;;;;;7.85;66.24;95250.84;5034873;28;20197;-82
2022/11/26 04:41:33;;;;;;;6.77;5.47;;;;;;;7.81;66.38;95250.22;5041617;28;20226;-84
2022/11/26 04:43:59;;;;;;;6.87;5.33;;;;;;;7.80;66.40;95253.69;5045634;28;20191;-84
2022/11/26 04:46:26;;;;;;;6.97;5.80;;;;;;;7.79;66.35;95252.88;5038070;28;20215;-84
2022/11/26 04:48:53;;;;;;;7.37;5.90;;;;;;;7.82;66.49;95258.69;5020757;28;20189;-84
2022/11/26 04:51:20;;;;;;;6.47;5.87;;;;;;;7.79;66.61;95263.06;5013311;28;20188;-85
2022/11/26 04:53:47;;;;;;;5.53;5.00;;;;;;;7.78;66.60;95258.09;5031233;28;20191;-83
2022/11/26 04:56:14;;;;;;;8.20;5.67;;;;;;;7.73;66.65;95267.78;5033128;28;20184;-80
2022/11/26 04:58:42;;;;;;;7.23;5.07;;;;;;;7.70;66.61;95268.00;5034825;28;20211;-84
2022/11/26 05:01:09;;;;;;;7.80;5.53;;;;;;;7.76;66.60;95272.66;5033771;28;20192;-83
2022/11/26 05:03:36;;;;;;;7.27;5.63;;;;;;;7.73;66.59;95272.88;5033634;28;20192;-84
2022/11/26 05:06:03;;;;;;;7.17;6.13;;;;;;;7.66;66.59;95271.66;5031846;28;20216;-83
2022/11/26 05:08:29;;;;;;;7.03;5.77;;;;;;;7.73;66.67;95285.63;5013432;28;20184;-85
2022/11/26 05:10:57;;;;;;;6.50;5.50;;;;;;;7.70;66.61;95278.19;5025687;28;20352;-81
2022/11/26 05:13:25;;;;;;;5.60;5.10;;;;;;;7.69;66.65;95285.00;5034207;28;20202;-85
2022/11/26 05:15:53;;;;;;;8.27;5.43;;;;;;;7.68;66.74;95283.34;5041086;28;20188;-85
2022/11/26 05:18:20;;;;;;;7.83;5.73;;;;;;;7.68;66.56;95288.44;5040708;28;20191;-84
2022/11/26 05:20:46;;;;;;;8.87;5.60;;;;;;;7.69;66.62;95285.00;5035892;28;20192;-85
2022/11/26 05:23:13;;;;;;;5.70;5.17;;;;;;;7.69;66.74;95290.09;5034067;28;20215;-82
2022/11/26 05:25:40;;;;;;;6.70;5.90;;;;;;;7.56;66.70;95268.13;5033399;28;20235;-87
2022/11/26 05:28:07;;;;;;;6.43;5.20;;;;;;;7.69;66.64;95305.38;5029928;28;20195;-83
2022/11/26 05:30:35;;;;;;;6.63;5.60;;;;;;;7.70;66.75;95301.91;5016869;28;20627;-85
2022/11/26 05:33:03;;;;;;;6.40;5.33;;;;;;;7.71;66.76;95303.53;5032937;28;20207;-85
2022/11/26 05:35:30;;;;;;;5.90;4.87;;;;;;;7.72;66.67;95302.59;5033063;28;20781;-84
2022/11/26 05:37:56;;;;;;;7.60;5.70;;;;;;;7.74;66.82;95307.59;5033545;28;20184;-85
2022/11/26 05:40:24;;;;;;;6.03;5.27;;;;;;;7.74;66.65;95307.59;5032705;28;20191;-84
2022/11/26 05:42:53;;;;;;;9.93;5.93;;;;;;;7.74;66.56;95316.03;5032782;28;20192;-83
2022/11/26 05:45:20;;;;;;;7.77;5.43;;;;;;;7.76;66.58;95310.84;5031845;28;20196;-83
2022/11/26 05:47:47;;;;;;;6.07;5.47;;;;;;;7.77;66.44;95318.41;5020608;28;20284;-82
2022/11/26 05:50:15;;;;;;;12.30;5.50;;;;;;;7.75;66.54;95317.66;5012685;28;20204;-82
2022/11/26 05:52:44;;;;;;;7.13;4.30;;;;;;;7.89;77.20;95315.91;5011885;28;20609;-85
2022/11/26 05:55:11;;;;;;;12.70;5.40;;;;;;;8.52;100.00;95308.06;5010423;28;20196;-84
2022/11/26 05:57:38;;;;;;;6.67;4.63;;;;;;;8.86;99.62;95304.81;5011737;28;20188;-84
2022/11/26 06:00:07;;;;;;;6.80;4.67;;;;;;;8.97;94.41;95308.19;5010057;28;20276;-82
2022/11/26 06:02:43;;;;;;;7.33;4.20;;;;;;;8.98;89.66;95306.44;5011728;28;20184;-83
2022/11/26 06:05:10;;;;;;;12.67;5.00;;;;;;;8.96;86.72;95298.91;5014659;28;20191;-82
2022/11/26 06:07:38;;;;;;;5.53;4.70;;;;;;;9.09;83.12;95318.41;5031083;28;20216;-87
2022/11/26 06:10:06;;;;;;;10.20;5.03;;;;;;;9.12;80.83;95315.66;5016300;28;20572;-84
2022/11/26 06:12:33;;;;;;;7.17;4.67;;;;;;;9.09;79.53;95306.47;5026377;28;20245;-93
2022/11/26 06:15:00;;;;;;;6.33;5.50;;;;;;;8.99;77.27;95269.81;5004084;28;20196;-85
2022/11/26 06:17:27;;;;;;;6.63;5.10;;;;;;;9.42;75.80;95307.44;5013501;28;20675;-89
2022/11/26 06:19:54;;;;;;;6.23;5.13;;;;;;;9.37;74.98;95269.50;5023757;28;20225;-82
2022/11/26 06:22:22;;;;;;;9.57;5.70;;;;;;;10.00;74.46;95320.88;5022202;28;20579;-86
2022/11/26 06:24:51;;;;;;;6.13;5.53;;;;;;;10.34;74.17;95331.06;5018255;23;20237;-84
2022/11/26 06:27:18;;;;;;;5.70;5.13;;;;;;;10.66;75.03;95320.81;4991071;28;20232;-84
2022/11/26 06:29:45;;;;;;;6.10;5.43;;;;;;;11.12;75.90;95323.03;4991557;28;20205;-79
2022/11/26 06:32:11;;;;;;;6.93;5.10;;;;;;;11.49;76.18;95299.53;4993243;28;20248;-84
2022/11/26 06:34:38;;;;;;;7.80;5.63;;;;;;;11.91;76.09;95295.09;4993702;28;20189;-85
2022/11/26 06:37:05;;;;;;;8.40;5.73;;;;;;;12.65;75.65;95338.31;4994682;28;20652;-91
2022/11/26 06:39:41;;;;;;;7.83;6.23;;;;;;;13.13;74.47;95331.53;4996371;28;20673;-86
2022/11/26 06:42:10;;;;;;;6.27;5.33;;;;;;;13.50;73.02;95318.75;4998898;28;20247;-88
2022/11/26 06:44:37;;;;;;;7.03;5.73;;;;;;;14.11;71.42;95343.94;5005184;28;20193;-85
2022/11/26 06:47:04;;;;;;;6.70;5.57;;;;;;;14.19;71.16;95278.91;5005973;28;20212;-83
2022/11/26 06:49:32;;;;;;;3.37;3.07;;;;;;;14.89;87.42;95284.25;5012532;28;20177;-81
2022/11/26 06:51:59;;;;;;;4.60;3.70;;;;;;;16.00;87.10;95332.44;5010338;28;20204;-91
2022/11/26 06:54:27;;;;;;;4.87;3.43;;;;;;;16.64;84.58;95342.31;5009789;28;20199;-81
2022/11/26 06:56:54;;;;;;;4.67;3.87;;;;;;;17.01;81.69;95328.97;5012099;28;20197;-80
2022/11/26 06:59:23;;;;;;;6.47;5.23;;;;;;;17.22;78.87;95342.22;5008396;28;20197;-80
2022/11/26 07:01:50;;;;;;;6.60;4.70;;;;;;;17.16;76.24;95347.25;5009393;28;20188;-82
2022/11/26 07:04:17;;;;;;;5.33;4.83;;;;;;;16.99;74.30;95349.81;5012153;28;20197;-84
2022/11/26 07:06:45;;;;;;;7.40;5.10;;;;;;;16.78;72.75;95352.84;4996227;28;20271;-83
2022/11/26 07:09:15;;;;;;;7.43;5.07;;;;;;;16.54;71.38;95340.69;4996902;28;20236;-83
2022/11/26 07:11:43;;;;;;;6.07;5.47;;;;;;;16.25;70.37;95342.88;4998666;28;20204;-81
2022/11/26 07:14:10;;;;;;;6.13;5.53;;;;;;;16.09;69.18;95353.94;5006247;28;20189;-83
2022/11/26 07:16:39;;;;;;;9.70;5.63;;;;;;;15.83;67.89;95353.16;5008130;28;20197;-86
2022/11/26 07:19:06;;;;;;;6.47;5.37;;;;;;;15.64;67.08;95352.44;4997090;28;20197;-80
2022/11/26 07:21:33;;;;;;;6.53;5.87;;;;;;;15.47;66.12;95366.16;4995355;28;20200;-81
2022/11/26 07:24:09;;;;;;;6.40;5.50;;;;;;;15.27;64.95;95358.59;4996185;28;20181;-85
2022/11/26 07:26:36;;;;;;;7.40;5.53;;;;;;;15.09;64.65;95355.25;4993927;28;20228;-84
2022/11/26 07:29:03;;;;;;;7.87;6.20;;;;;;;14.85;64.05;95344.72;4995332;28;20969;-84
2022/11/26 07:31:30;;;;;;;6.50;5.90;;;;;;;14.70;63.51;95352.97;4996047;28;20197;-80
2022/11/26 07:34:01;;;;;;;8.63;6.67;;;;;;;14.60;63.12;95357.38;4996044;28;20201;-83
2022/11/26 07:36:32;;;;;;;6.90;5.93;;;;;;;14.39;62.78;95343.94;4993485;28;20216;-79
2022/11/26 07:39:02;;;;;;;6.93;6.20;;;;;;;14.23;62.17;95344.56;4991025;28;20185;-83
2022/11/26 07:41:30;;;;;;;8.77;6.37;;;;;;;14.19;62.07;95356.09;4986816;28;20197;-79
2022/11/26 07:43:57;;;;;;;6.60;5.97;;;;;;;14.13;61.73;95366.97;4990952;28;20188;-82
2022/11/26 07:46:28;;;;;;;7.60;6.23;;;;;;;14.02;61.29;95368.75;4991273;28;20233;-81
2022/11/26 07:48:56;;;;;;;7.30;6.53;;;;;;;13.81;61.25;95358.69;4993795;28;20193;-83
2022/11/26 07:51:27;;;;;;;6.43;5.83;;;;;;;13.84;60.88;95374.78;4985749;28;20197;-84
2022/11/26 07:53:55;;;;;;;10.03;6.50;;;;;;;13.40;60.98;95321.38;4990442;28;20188;-84
2022/11/26 07:56:22;;;;;;;7.43;6.60;;;;;;;13.68;60.88;95377.94;4990761;28;20243;-85
2022/11/26 07:58:51;;;;;;;8.90;6.60;;;;;;;13.62;60.65;95384.47;4991337;28;20187;-88
2022/11/26 08:01:28;;;;;;;7.20;6.50;;;;;;;13.33;60.36;95355.44;4990707;28;20193;-87
2022/11/26 08:03:58;;;;;;;10.80;7.50;;;;;;;13.30;60.32;95361.69;4992555;28;20259;-87
2022/11/26 08:06:29;;;;;;;9.00;6.93;;;;;;;13.09;60.18;95332.75;4994177;28;20272;-87
2022/11/26 08:08:55;;;;;;;8.73;7.03;;;;;;;13.42;59.95;95398.28;4994616;28;20197;-87
2022/11/26 08:11:25;;;;;;;8.03;6.53;;;;;;;12.96;60.12;95331.28;4994336;28;20204;-86
2022/11/26 08:13:54;;;;;;;8.20;7.40;;;;;;;12.93;59.79;95328.97;4996904;28;20197;-87
2022/11/26 08:16:22;;;;;;;8.90;6.90;;;;;;;12.97;59.64;95335.47;5000812;28;20224;-92
2022/11/26 08:18:56;;;;;;;8.73;6.73;;;;;;;13.15;59.64;95363.81;4999101;28;20282;-85
2022/11/26 08:21:24;;;;;;;9.20;6.87;;;;;;;13.03;59.45;95350.31;4994117;28;20632;-86
2022/11/26 08:23:56;;;;;;;10.27;7.20;;;;;;;13.25;59.44;95390.31;4992167;28;20577;-90
2022/11/26 08:26:26;;;;;;;6.50;5.83;;;;;;;13.23;59.29;95389.66;4989621;28;20241;-84
2022/11/26 08:28:53;;;;;;;8.93;6.57;;;;;;;13.22;59.27;95388.06;4989300;28;20193;-81
2022/11/26 08:31:21;;;;;;;7.60;6.83;;;;;;;13.22;59.28;95393.19;4992524;28;20673;-81
2022/11/26 08:33:48;;;;;;;7.37;6.67;;;;;;;13.22;59.03;95392.34;4995587;28;20249;-81
2022/11/26 08:36:15;;;;;;;8.23;6.83;;;;;;;13.17;59.12;95387.63;4994432;28;20239;-83
2022/11/26 08:38:42;;;;;;;10.00;6.50;;;;;;;13.12;58.93;95387.19;4994323;28;20189;-80
2022/11/26 08:41:13;;;;;;;7.80;6.67;;;;;;;13.16;58.77;95398.81;4993495;28;20287;-81
2022/11/26 08:43:42;;;;;;;8.73;6.00;;;;;;;12.99;58.78;95366.94;4994137;28;20192;-82
2022/11/26 08:46:10;;;;;;;7.43;6.57;;;;;;;13.02;58.72;95371.81;4992983;28;20197;-82
2022/11/26 08:48:37;;;;;;;9.40;7.37;;;;;;;13.04;58.75;95372.50;4992384;28;20703;-85
2022/11/26 08:51:06;;;;;;;6.73;6.03;;;;;;;12.92;58.36;95347.91;4992897;28;20201;-85
2022/11/26 08:53:34;;;;;;;7.43;5.97;;;;;;;13.18;58.31;95373.84;4993509;28;20201;-87
2022/11/26 08:56:02;;;;;;;5.37;3.90;;;;;;;13.49;77.42;95389.09;4993302;28;20208;-86
2022/11/26 08:58:33;;;;;;;7.73;3.90;;;;;;;14.08;85.69;95382.84;4993328;28;20192;-87
2022/11/26 09:01:00;;;;;;;5.80;5.20;;;;;;;14.49;80.41;95363.53;4995894;28;20589;-85
2022/11/26 09:03:31;;;;;;;9.37;5.30;;;;;;;14.94;74.90;95403.91;4992800;28;20200;-85
2022/11/26 09:06:01;;;;;;;5.27;4.77;;;;;;;14.83;72.26;95368.06;4993873;28;20192;-86
2022/11/26 09:08:33;;;;;;;6.17;5.57;;;;;;;14.79;70.86;95371.88;4993688;28;20304;-87
2022/11/26 09:11:00;;;;;;;6.10;5.50;;;;;;;15.04;69.81;95406.41;4993355;28;20204;-86
2022/11/26 09:13:27;;;;;;;6.60;5.40;;;;;;;15.02;68.43;95406.53;5003266;28;20203;-89
2022/11/26 09:15:56;;;;;;;6.70;6.10;;;;;;;14.86;67.41;95387.56;4998787;28;20227;-88
2022/11/26 09:18:23;;;;;;;7.23;6.10;;;;;;;15.00;66.09;95402.50;4994257;28;20243;-89
2022/11/26 09:20:50;;;;;;;8.90;6.03;;;;;;;15.06;65.07;95401.91;4994494;28;20185;-89
2022/11/26 09:23:19;;;;;;;8.07;6.50;;;;;;;14.95;64.12;95377.19;5001780;28;20196;-90
2022/11/26 09:25:49;;;;;;;9.23;7.37;;;;;;;15.28;62.87;95408.34;4995700;28;20243;-89
2022/11/26 09:28:16;;;;;;;8.07;7.03;;;;;;;15.39;61.96;95397.81;4994083;28;20221;-90
2022/11/26 09:30:44;;;;;;;8.03;6.93;;;;;;;15.49;60.91;95402.88;4994631;28;20196;-85
2022/11/26 09:33:13;;;;;;;8.53;7.77;;;;;;;15.55;60.36;95397.94;4995141;28;20189;-87
2022/11/26 09:35:40;;;;;;;12.13;7.97;;;;;;;15.49;59.96;95375.34;4994131;28;20580;-87
2022/11/26 09:38:07;;;;;;;8.00;6.90;;;;;;;15.60;59.25;95387.19;4995844;28;20192;-89
2022/11/26 09:40:41;;;;;;;7.63;6.90;;;;;;;15.64;58.86;95387.69;4995842;28;20248;-86
2022/11/26 09:43:22;;;;;;;10.33;7.33;;;;;;;15.27;58.38;95335.41;4993525;28;20242;-86
2022/11/26 09:45:54;;;;;;;10.67;6.80;;;;;;;15.56;58.33;95385.88;4991943;28;20196;-84
2022/11/26 09:48:26;;;;;;;9.70;6.83;;;;;;;15.49;57.94;95380.50;4992670;28;20312;-89
2022/11/26 09:51:02;;;;;;;7.93;7.03;;;;;;;15.45;57.78;95380.94;4991551;28;20203;-86
2022/11/26 09:53:35;;;;;;;8.83;7.87;;;;;;;15.47;57.24;95384.19;4990694;28;20180;-85
2022/11/26 09:56:02;;;;;;;7.73;6.93;;;;;;;15.42;57.27;95376.09;4984909;28;20206;-87
2022/11/26 09:58:39;;;;;;;7.87;7.07;;;;;;;15.11;56.92;95329.31;4987882;28;20196;-85
2022/11/26 10:01:09;;;;;;;9.53;7.33;;;;;;;15.12;56.80;95336.09;4993062;28;20553;-85
2022/11/26 10:03:38;;;;;;;9.17;7.43;;;;;;;15.19;56.61;95339.69;4991051;28;20217;-83
2022/11/26 10:06:09;;;;;;;8.47;6.50;;;;;;;15.37;56.20;95370.56;4990850;28;20193;-84
2022/11/26 10:09:02;;;;;;;10.27;6.80;;;;;;;15.25;56.00;95344.25;4991143;28;20256;-83
2022/11/26 10:11:37;;;;;;;10.40;6.73;;;;;;;15.37;55.83;95358.53;4991156;28;20657;-83
2022/11/26 10:14:20;;;;;;;8.87;7.47;;;;;;;15.39;55.73;95360.94;4991273;28;20679;-85
2022/11/26 10:17:00;;;;;;;6.90;6.20;;;;;;;15.40;55.34;95363.34;4992415;28;20188;-83
2022/11/26 10:19:42;;;;;;;8.00;7.20;;;;;;;15.32;55.14;95335.75;4993230;28;20572;-85
2022/11/26 10:22:20;;;;;;;7.77;6.57;;;;;;;15.50;55.09;95352.94;4994787;28;20185;-87
2022/11/26 10:24:49;;;;;;;8.87;7.20;;;;;;;15.52;54.78;95346.69;4991343;28;20232;-90
2022/11/26 10:27:20;;;;;;;10.30;6.80;;;;;;;15.46;54.72;95331.03;4995448;28;20229;-92
2022/11/26 10:29:51;;;;;;;7.47;6.80;;;;;;;15.56;54.58;95350.56;4996691;28;20197;-88
2022/11/26 10:32:25;;;;;;;8.13;6.80;;;;;;;15.56;54.31;95331.72;5017681;28;20567;-86
2022/11/26 10:35:00;;;;;;;7.67;6.70;;;;;;;15.47;54.32;95333.44;5012083;28;20243;-84
2022/11/26 10:37:29;;;;;;;8.83;7.57;;;;;;;15.26;54.37;95286.59;4976513;28;20201;-82
2022/11/26 10:39:58;;;;;;;8.17;6.60;;;;;;;15.55;54.18;95337.84;4991729;28;20196;-87
2022/11/26 10:42:25;;;;;;;7.23;6.40;;;;;;;15.51;54.08;95329.59;4999079;28;20255;-85
2022/11/26 10:44:53;;;;;;;7.50;6.80;;;;;;;15.47;54.02;95335.22;4996936;28;20212;-82
2022/11/26 10:47:31;;;;;;;7.43;6.53;;;;;;;15.49;53.82;95336.66;4992092;28;20220;-83
2022/11/26 10:50:15;;;;;;;7.77;6.80;;;;;;;15.12;53.63;95282.81;4986526;28;20244;-87
2022/11/26 10:52:42;;;;;;;6.40;5.70;;;;;;;15.46;53.80;95336.19;4991251;28;20200;-82
2022/11/26 10:55:23;;;;;;;7.90;6.00;;;;;;;15.43;53.52;95334.72;4989380;28;20196;-80
2022/11/26 10:57:55;;;;;;;6.70;5.87;;;;;;;15.41;53.60;95333.22;4990351;28;20196;-86
2022/11/26 11:00:34;;;;;;;8.67;6.73;;;;;;;15.38;53.34;95342.09;4990281;28;20599;-86
2022/11/26 11:03:03;;;;;;;8.23;7.17;;;;;;;15.37;53.15;95342.22;4989866;28;20552;-84
2022/11/26 11:05:40;;;;;;;7.57;6.77;;;;;;;15.34;53.04;95340.78;4995859;28;20224;-87
2022/11/26 11:08:13;;;;;;;8.93;7.00;;;;;;;15.25;52.95;95339.91;5004235;28;20208;-81
2022/11/26 11:10:53;;;;;;;8.07;7.23;;;;;;;15.29;53.13;95345.56;4997507;28;20196;-85
2022/11/26 11:13:20;;;;;;;9.60;7.30;;;;;;;15.28;53.16;95341.34;4995109;28;20193;-85
2022/11/26 11:15:59;;;;;;;11.53;7.53;;;;;;;15.26;52.99;95346.66;4998566;28;20185;-79
2022/11/26 11:18:28;;;;;;;9.20;7.63;;;;;;;15.25;53.13;95342.47;4996521;28;20193;-79
2022/11/26 11:20:59;;;;;;;8.50;6.97;;;;;;;15.23;53.26;95341.81;4998040;28;20185;-78
2022/11/26 11:23:29;;;;;;;8.40;7.27;;;;;;;15.13;53.04;95330.78;4996835;28;20189;-77
2022/11/26 11:26:01;;;;;;;9.53;7.97;;;;;;;15.12;53.02;95331.75;4997120;28;20225;-80
2022/11/26 11:28:30;;;;;;;9.63;7.70;;;;;;;15.16;53.22;95334.84;4995007;28;20228;-81
2022/11/26 11:31:01;;;;;;;9.13;7.97;;;;;;;15.09;53.11;95326.09;4994210;28;20189;-80
2022/11/26 11:33:29;;;;;;;8.73;7.40;;;;;;;15.13;52.92;95335.94;4993909;28;20207;-89
2022/11/26 11:36:32;;;;;;;9.37;7.50;;;;;;;15.12;53.04;95344.66;4995153;28;20193;-88
2022/11/26 11:39:00;;;;;;;9.17;7.27;;;;;;;14.80;52.82;95294.47;4993760;28;20195;-81
2022/11/26 11:41:32;;;;;;;10.43;7.60;;;;;;;15.09;52.81;95341.56;4993344;28;20192;-88
2022/11/26 11:44:06;;;;;;;8.90;7.67;;;;;;;15.06;52.69;95327.19;4996696;28;20676;-88
2022/11/26 11:47:22;;;;;;;9.80;7.20;;;;;;;15.04;52.63;95323.97;4995519;28;20225;-86
2022/11/26 11:50:08;;;;;;;8.53;6.63;;;;;;;15.01;52.68;95324.25;4915051;29;20199;-85